Window Rock, Arizona
Current Conditions -  °F | °C
As of 11:53 PM on Saturday 20 Dec 2014 (Local Time) from KRQE Reporting Station
Clear Clear  
Wind Chill: 30°   Ceiling: Unl
Heat Index: 30°   Visibility: 10mi
Dew Point: 25°   Wind: 0mph
Humidity: 82%   Direction: NA
Pressure: 30.13"   Gusts: NA
Location:  35.67°N, 109.07°W
Report Text: KRQE 210653Z AUTO 00000KT 10SM CLR M01/M04 A3013 RMK AO2 SLP174 T10111039 400831067 TSNO
Loading
Personal Weather Stations






























Interactive Weather Map New forecast layout! Learn more

10-Day Weather Forecast

Advertisements
Track Severe Weather on mobile